createdAt,value
2017-04-02T00:00:02.233Z,15.72
2017-04-02T00:01:11.485Z,15.71
2017-04-02T00:02:21.730Z,15.68
2017-04-02T00:03:30.687Z,15.65
2017-04-02T00:04:40.459Z,15.69
2017-04-02T00:05:49.415Z,15.6
2017-04-02T00:06:59.133Z,15.51
2017-04-02T00:08:08.100Z,15.56
2017-04-02T00:09:17.789Z,15.54
2017-04-02T00:10:26.752Z,15.51
2017-04-02T00:11:36.749Z,15.5
2017-04-02T00:12:46.008Z,15.41
2017-04-02T00:13:55.683Z,15.46
2017-04-02T00:15:04.762Z,15.44
2017-04-02T00:16:16.088Z,15.38
2017-04-02T00:17:26.598Z,15.34
2017-04-02T00:18:38.043Z,15.36
2017-04-02T00:19:48.123Z,15.28
2017-04-02T00:20:57.080Z,15.34
2017-04-02T00:22:07.029Z,15.29
2017-04-02T00:23:15.996Z,15.31
2017-04-02T00:24:26.290Z,15.21
2017-04-02T00:25:35.389Z,15.17
2017-04-02T00:26:45.677Z,15.11
2017-04-02T00:27:55.295Z,15.13
2017-04-02T00:29:05.314Z,15.06
2017-04-02T00:30:15.426Z,15.16
2017-04-02T00:31:24.787Z,15.07
2017-04-02T00:32:34.461Z,15.09
2017-04-02T00:33:43.416Z,15.02
2017-04-02T00:34:53.141Z,15.02
2017-04-02T00:36:02.881Z,15.02
2017-04-02T00:37:12.792Z,15.01
2017-04-02T00:38:21.883Z,15.01
2017-04-02T00:39:31.549Z,15.03
2017-04-02T00:40:40.600Z,14.99
2017-04-02T00:41:52.045Z,14.98
2017-04-02T00:43:01.005Z,14.96
2017-04-02T00:44:11.399Z,14.98
2017-04-02T00:45:20.363Z,14.89
2017-04-02T00:46:29.896Z,14.88
2017-04-02T00:47:39.190Z,14.78
2017-04-02T00:48:48.757Z,14.83
2017-04-02T00:49:57.715Z,14.81
2017-04-02T00:51:09.576Z,14.81
2017-04-02T00:52:18.683Z,14.81
2017-04-02T00:53:29.715Z,14.84
2017-04-02T00:54:40.771Z,14.8
2017-04-02T00:55:49.774Z,14.88
2017-04-02T00:57:00.525Z,14.8
2017-04-02T00:58:12.259Z,14.81
2017-04-02T00:59:22.934Z,14.77
2017-04-02T01:00:34.933Z,14.8
2017-04-02T01:01:43.891Z,14.7
2017-04-02T01:02:53.821Z,14.73
2017-04-02T01:04:02.772Z,14.7
2017-04-02T01:05:13.068Z,14.7
2017-04-02T01:06:22.831Z,14.7
2017-04-02T01:07:32.425Z,14.62
2017-04-02T01:08:42.187Z,14.61
2017-04-02T01:09:52.083Z,14.62
2017-04-02T01:11:02.831Z,14.65
2017-04-02T01:12:11.950Z,14.73
2017-04-02T01:13:22.259Z,14.78
2017-04-02T01:14:31.221Z,14.61
2017-04-02T01:15:40.916Z,14.65
2017-04-02T01:16:50.163Z,14.68
2017-04-02T01:17:59.758Z,14.68
2017-04-02T01:19:08.805Z,14.62
2017-04-02T01:20:18.594Z,14.62
2017-04-02T01:21:27.592Z,14.68
2017-04-02T01:22:37.880Z,14.62
2017-04-02T01:23:46.874Z,14.46
2017-04-02T01:24:56.984Z,14.47
2017-04-02T01:26:06.115Z,14.47
2017-04-02T01:27:17.586Z,14.58
2017-04-02T01:28:27.804Z,14.55
2017-04-02T01:29:37.501Z,14.51
2017-04-02T01:30:46.735Z,14.47
2017-04-02T01:31:55.693Z,14.51
2017-04-02T01:33:05.580Z,14.45
2017-04-02T01:34:14.835Z,14.47
2017-04-02T01:35:25.642Z,14.52
2017-04-02T01:36:34.600Z,14.58
2017-04-02T01:37:44.671Z,14.52
2017-04-02T01:38:53.623Z,14.54
2017-04-02T01:40:03.704Z,14.51
2017-04-02T01:41:12.666Z,14.57
2017-04-02T01:42:22.871Z,14.42
2017-04-02T01:43:31.957Z,14.45
2017-04-02T01:44:41.869Z,14.45
2017-04-02T01:45:51.080Z,14.37
2017-04-02T01:47:00.696Z,14.4
2017-04-02T01:48:09.762Z,14.35
2017-04-02T01:49:20.964Z,14.33
2017-04-02T01:50:29.963Z,14.4
2017-04-02T01:51:41.115Z,14.32
2017-04-02T01:52:52.468Z,14.27
2017-04-02T01:54:01.421Z,14.32
2017-04-02T01:55:11.091Z,14.27
2017-04-02T01:56:20.054Z,14.36
2017-04-02T01:57:29.308Z,14.37
2017-04-02T01:58:38.265Z,14.35
2017-04-02T01:59:47.225Z,14.36
2017-04-02T02:00:56.179Z,14.21
2017-04-02T02:02:05.138Z,14.36
2017-04-02T02:03:14.392Z,14.32
2017-04-02T02:04:23.350Z,14.27
2017-04-02T02:05:32.305Z,14.35
2017-04-02T02:06:41.354Z,14.37
2017-04-02T02:07:50.310Z,14.39
2017-04-02T02:08:59.568Z,14.39
2017-04-02T02:10:08.563Z,14.45
2017-04-02T02:11:17.523Z,14.42
2017-04-02T02:12:26.509Z,14.43
2017-04-02T02:13:35.464Z,14.55
2017-04-02T02:14:44.722Z,14.5
2017-04-02T02:15:53.675Z,14.52
2017-04-02T02:17:02.627Z,14.51
2017-04-02T02:18:11.591Z,14.45
2017-04-02T02:19:20.638Z,14.5
2017-04-02T02:20:29.897Z,14.52
2017-04-02T02:21:38.854Z,14.47
2017-04-02T02:22:47.807Z,14.46
2017-04-02T02:23:56.762Z,14.57
2017-04-02T02:25:05.718Z,14.47
2017-04-02T02:26:14.997Z,14.47
2017-04-02T02:27:23.951Z,14.42
2017-04-02T02:28:32.996Z,14.47
2017-04-02T02:29:41.950Z,14.43
2017-04-02T02:30:50.910Z,14.5
2017-04-02T02:32:00.166Z,14.47
2017-04-02T02:33:09.129Z,14.47
2017-04-02T02:34:18.079Z,14.55
2017-04-02T02:35:27.048Z,14.51
2017-04-02T02:36:36.006Z,14.47
2017-04-02T02:37:45.265Z,14.45
2017-04-02T02:38:54.221Z,14.52
2017-04-02T02:40:03.181Z,14.54
2017-04-02T02:41:12.227Z,14.52
2017-04-02T02:42:21.192Z,14.42
2017-04-02T02:43:30.444Z,14.43
2017-04-02T02:44:39.395Z,14.4
2017-04-02T02:45:48.354Z,14.39
2017-04-02T02:46:57.311Z,14.43
2017-04-02T02:48:06.270Z,14.4
2017-04-02T02:49:15.618Z,14.43
2017-04-02T02:50:24.574Z,14.4
2017-04-02T02:51:33.529Z,14.42
2017-04-02T02:52:42.496Z,14.42
2017-04-02T02:53:51.490Z,14.4
2017-04-02T02:55:00.742Z,14.35
2017-04-02T02:56:09.788Z,14.46
2017-04-02T02:57:18.744Z,14.39
2017-04-02T02:58:27.703Z,14.4
2017-04-02T02:59:36.741Z,14.39
2017-04-02T03:00:45.953Z,14.37
2017-04-02T03:01:54.917Z,14.43
2017-04-02T03:03:03.874Z,14.39
2017-04-02T03:04:12.834Z,14.4
2017-04-02T03:05:21.791Z,14.5
2017-04-02T03:06:31.083Z,14.39
2017-04-02T03:07:40.038Z,14.43
2017-04-02T03:08:48.993Z,14.45
2017-04-02T03:09:57.956Z,14.4
2017-04-02T03:11:07.003Z,14.45
2017-04-02T03:12:16.261Z,14.47
2017-04-02T03:13:25.217Z,14.42
2017-04-02T03:14:34.245Z,14.42
2017-04-02T03:15:43.211Z,14.4
2017-04-02T03:16:52.175Z,14.39
2017-04-02T03:18:01.428Z,14.37
2017-04-02T03:19:10.386Z,14.37
2017-04-02T03:20:19.339Z,14.35
2017-04-02T03:21:28.297Z,14.37
2017-04-02T03:22:37.250Z,14.42
2017-04-02T03:23:46.502Z,14.4
2017-04-02T03:24:55.454Z,14.28
2017-04-02T03:26:04.416Z,14.35
2017-04-02T03:27:13.457Z,14.36
2017-04-02T03:28:22.419Z,14.37
2017-04-02T03:29:31.721Z,14.37
2017-04-02T03:30:40.678Z,14.36
2017-04-02T03:31:49.633Z,14.36
2017-04-02T03:32:58.594Z,14.33
2017-04-02T03:34:07.553Z,14.24
2017-04-02T03:35:16.515Z,14.2
2017-04-02T03:36:25.473Z,14.24
2017-04-02T03:37:34.431Z,14.27
2017-04-02T03:38:43.387Z,14.21
2017-04-02T03:39:52.646Z,14.24
2017-04-02T03:41:01.605Z,14.21
2017-04-02T03:42:10.564Z,14.12
2017-04-02T03:43:19.517Z,14.24
2017-04-02T03:44:28.470Z,14.15
2017-04-02T03:45:37.727Z,14.2
2017-04-02T03:46:46.681Z,14.1
2017-04-02T03:47:55.635Z,14.14
2017-04-02T03:49:04.680Z,14.12
2017-04-02T03:50:13.649Z,14.14
2017-04-02T03:51:23.227Z,14.1
2017-04-02T03:52:32.188Z,14.14
2017-04-02T03:53:44.191Z,14.09
2017-04-02T03:54:53.147Z,14.06
2017-04-02T03:56:02.101Z,13.99
2017-04-02T03:57:11.354Z,14.04
2017-04-02T03:58:20.312Z,14.03
2017-04-02T03:59:29.268Z,14.03
2017-04-02T04:00:38.225Z,13.97
2017-04-02T04:01:47.182Z,14.07
2017-04-02T04:02:56.443Z,14.03
2017-04-02T04:04:05.483Z,14.04
2017-04-02T04:05:14.438Z,14.03
2017-04-02T04:06:23.395Z,13.95
2017-04-02T04:07:32.684Z,14.03
2017-04-02T04:08:41.942Z,13.97
2017-04-02T04:09:50.904Z,13.92
2017-04-02T04:10:59.899Z,13.89
2017-04-02T04:12:08.860Z,13.89
2017-04-02T04:13:17.816Z,13.91
2017-04-02T04:14:27.026Z,14.02
2017-04-02T04:15:35.985Z,13.91
2017-04-02T04:16:44.941Z,13.85
2017-04-02T04:17:53.893Z,13.82
2017-04-02T04:19:02.936Z,13.84
2017-04-02T04:20:12.147Z,13.92
2017-04-02T04:21:21.104Z,13.84
2017-04-02T04:22:30.060Z,13.88
2017-04-02T04:23:39.014Z,13.87
2017-04-02T04:24:47.972Z,13.87
2017-04-02T04:25:57.183Z,13.79
2017-04-02T04:27:06.141Z,13.81
2017-04-02T04:28:15.143Z,13.79
2017-04-02T04:29:24.107Z,13.82
2017-04-02T04:30:33.382Z,13.84
2017-04-02T04:31:42.640Z,13.79
2017-04-02T04:32:51.598Z,13.78
2017-04-02T04:34:00.552Z,13.79
2017-04-02T04:35:09.519Z,13.75
2017-04-02T04:36:18.473Z,13.78
2017-04-02T04:37:27.733Z,13.77
2017-04-02T04:38:36.693Z,13.73
2017-04-02T04:39:45.654Z,13.71
2017-04-02T04:40:54.617Z,13.67
2017-04-02T04:42:03.578Z,13.75
2017-04-02T04:43:12.832Z,13.71
2017-04-02T04:44:21.790Z,13.78
2017-04-02T04:45:30.751Z,13.67
2017-04-02T04:46:39.705Z,13.73
2017-04-02T04:47:48.660Z,13.67
2017-04-02T04:48:58.007Z,13.69
2017-04-02T04:50:06.963Z,13.71
2017-04-02T04:51:15.917Z,13.66
2017-04-02T04:52:24.883Z,13.71
2017-04-02T04:53:33.843Z,13.71
2017-04-02T04:54:43.053Z,13.57
2017-04-02T04:55:52.011Z,13.55
2017-04-02T04:57:00.975Z,13.59
2017-04-02T04:58:10.262Z,13.63
2017-04-02T04:59:19.262Z,13.59
2017-04-02T05:00:28.884Z,13.6
2017-04-02T05:01:38.199Z,13.59
2017-04-02T05:02:47.236Z,13.62
2017-04-02T05:03:56.303Z,13.64
2017-04-02T05:05:05.270Z,13.62
2017-04-02T05:06:14.526Z,13.57
2017-04-02T05:07:23.481Z,13.54
2017-04-02T05:08:32.439Z,13.59
2017-04-02T05:09:41.392Z,13.55
2017-04-02T05:10:50.351Z,13.63
2017-04-02T05:11:59.607Z,13.59
2017-04-02T05:13:08.569Z,13.55
2017-04-02T05:14:17.523Z,13.59
2017-04-02T05:15:26.477Z,13.52
2017-04-02T05:16:35.436Z,13.54
2017-04-02T05:17:44.697Z,13.52
2017-04-02T05:18:53.653Z,13.55
2017-04-02T05:20:02.609Z,13.52
2017-04-02T05:21:11.568Z,13.52
2017-04-02T05:22:20.525Z,13.52
2017-04-02T05:23:29.793Z,13.57
2017-04-02T05:24:38.837Z,13.57
2017-04-02T05:25:47.794Z,13.52
2017-04-02T05:26:56.747Z,13.55
2017-04-02T05:28:05.704Z,13.54
2017-04-02T05:29:14.949Z,13.55
2017-04-02T05:30:23.910Z,13.49
2017-04-02T05:31:32.864Z,13.48
2017-04-02T05:32:41.818Z,13.44
2017-04-02T05:33:50.777Z,13.44
2017-04-02T05:35:00.032Z,13.41
2017-04-02T05:36:09.077Z,13.41
2017-04-02T05:37:18.036Z,13.39
2017-04-02T05:38:26.991Z,13.45
2017-04-02T05:39:35.947Z,13.38
2017-04-02T05:40:45.154Z,13.38
2017-04-02T05:41:54.149Z,13.42
2017-04-02T05:43:03.190Z,13.39
2017-04-02T05:44:12.148Z,13.44
2017-04-02T05:45:21.109Z,13.26
2017-04-02T05:46:30.365Z,13.3
2017-04-02T05:47:39.322Z,13.3
2017-04-02T05:48:48.275Z,13.29
2017-04-02T05:49:57.317Z,13.36
2017-04-02T05:51:06.277Z,13.39
2017-04-02T05:52:15.532Z,13.41
2017-04-02T05:53:24.487Z,13.38
2017-04-02T05:54:33.444Z,13.29
2017-04-02T05:55:42.399Z,13.28
2017-04-02T05:56:51.452Z,13.28
2017-04-02T05:58:00.716Z,13.28
2017-04-02T05:59:09.678Z,13.23
2017-04-02T06:00:18.662Z,13.2
2017-04-02T06:01:27.655Z,13.3
2017-04-02T06:02:36.611Z,13.36
2017-04-02T06:03:45.961Z,13.42
2017-04-02T06:04:54.921Z,13.42
2017-04-02T06:06:03.877Z,13.42
2017-04-02T06:07:12.854Z,13.39
2017-04-02T06:08:21.809Z,13.44
2017-04-02T06:09:31.101Z,13.42
2017-04-02T06:10:40.057Z,13.52
2017-04-02T06:11:49.013Z,13.57
2017-04-02T06:12:58.057Z,13.75
2017-04-02T06:14:07.009Z,13.75
2017-04-02T06:15:16.254Z,13.79
2017-04-02T06:16:25.214Z,13.97
2017-04-02T06:17:34.170Z,14.04
2017-04-02T06:18:43.122Z,14.14
2017-04-02T06:19:52.078Z,14.07
2017-04-02T06:21:01.376Z,14.24
2017-04-02T06:22:10.337Z,14.17
2017-04-02T06:23:19.299Z,14.27
2017-04-02T06:24:28.289Z,14.32
2017-04-02T06:25:37.249Z,14.22
2017-04-02T06:26:46.503Z,14.29
2017-04-02T06:27:55.495Z,14.32
2017-04-02T06:29:04.900Z,14.35
2017-04-02T06:30:13.864Z,14.37
2017-04-02T06:31:22.815Z,14.28
2017-04-02T06:32:32.079Z,14.45
2017-04-02T06:33:41.032Z,14.36
2017-04-02T06:34:49.995Z,14.39
2017-04-02T06:35:58.964Z,14.42
2017-04-02T06:37:07.948Z,14.47
2017-04-02T06:38:17.229Z,14.39
2017-04-02T06:39:26.223Z,14.37
2017-04-02T06:40:35.194Z,14.43
2017-04-02T06:41:44.169Z,14.42
2017-04-02T06:42:53.148Z,14.51
2017-04-02T06:44:02.424Z,14.52
2017-04-02T06:45:11.409Z,14.54
2017-04-02T06:46:20.391Z,14.58
2017-04-02T06:47:29.461Z,14.6
2017-04-02T06:48:38.438Z,14.6
2017-04-02T06:49:47.707Z,14.64
2017-04-02T06:50:56.657Z,14.68
2017-04-02T06:52:05.614Z,14.68
2017-04-02T06:53:14.577Z,14.61
2017-04-02T06:54:23.533Z,14.61
2017-04-02T06:55:33.073Z,14.65
2017-04-02T06:56:42.029Z,14.58
2017-04-02T06:57:50.981Z,14.64
2017-04-02T06:58:59.937Z,14.57
2017-04-02T07:00:08.897Z,14.65
2017-04-02T07:01:18.157Z,14.68
2017-04-02T07:02:27.119Z,14.6
2017-04-02T07:03:36.079Z,14.69
2017-04-02T07:04:45.036Z,14.72
2017-04-02T07:05:53.993Z,14.7
2017-04-02T07:07:03.250Z,14.7
2017-04-02T07:08:12.207Z,14.61
2017-04-02T07:09:21.167Z,14.61
2017-04-02T07:10:30.128Z,14.58
2017-04-02T07:11:39.081Z,14.7
2017-04-02T07:12:48.339Z,14.75
2017-04-02T07:13:57.627Z,14.83
2017-04-02T07:15:07.232Z,14.94
2017-04-02T07:16:16.191Z,15.02
2017-04-02T07:17:25.147Z,14.94
2017-04-02T07:18:34.410Z,14.99
2017-04-02T07:19:43.366Z,15.03
2017-04-02T07:20:52.325Z,15.07
2017-04-02T07:22:01.371Z,15.1
2017-04-02T07:23:10.326Z,15.17
2017-04-02T07:24:19.670Z,15.14
2017-04-02T07:25:28.633Z,15.35
2017-04-02T07:26:37.600Z,15.35
2017-04-02T07:27:46.571Z,15.39
2017-04-02T07:28:55.533Z,15.5
2017-04-02T07:30:04.795Z,15.47
2017-04-02T07:31:13.754Z,15.5
2017-04-02T07:32:22.713Z,15.5
2017-04-02T07:33:31.675Z,15.57
2017-04-02T07:34:40.631Z,15.71
2017-04-02T07:35:49.888Z,15.69
2017-04-02T07:36:58.845Z,15.71
2017-04-02T07:38:07.813Z,15.71
2017-04-02T07:39:16.774Z,15.67
2017-04-02T07:40:25.732Z,15.68
2017-04-02T07:41:34.984Z,15.68
2017-04-02T07:42:43.946Z,15.65
2017-04-02T07:43:52.905Z,15.74
2017-04-02T07:45:02.069Z,15.86
2017-04-02T07:46:11.422Z,15.94
2017-04-02T07:47:20.681Z,16.01
2017-04-02T07:48:29.660Z,16.04
2017-04-02T07:49:38.624Z,16.2
2017-04-02T07:50:47.836Z,16.05
2017-04-02T07:51:57.113Z,16.12
2017-04-02T07:53:06.576Z,16.15
2017-04-02T07:54:15.645Z,16.08
2017-04-02T07:55:24.747Z,16.2
2017-04-02T07:56:33.890Z,16.15
2017-04-02T07:57:42.846Z,16.25
2017-04-02T07:58:52.103Z,16.12
2017-04-02T08:00:01.069Z,16.21
2017-04-02T08:01:10.027Z,16.17
2017-04-02T08:02:18.985Z,16.2
2017-04-02T08:03:28.028Z,16.14
2017-04-02T08:04:37.304Z,16.23
2017-04-02T08:05:46.265Z,16.23
2017-04-02T08:06:55.224Z,16.17
2017-04-02T08:08:04.222Z,16.3
2017-04-02T08:09:13.180Z,16.27
2017-04-02T08:10:22.445Z,16.31
2017-04-02T08:11:31.405Z,16.35
2017-04-02T08:12:40.374Z,16.39
2017-04-02T08:13:50.052Z,16.38
2017-04-02T08:14:59.468Z,16.38
2017-04-02T08:16:09.014Z,16.35
2017-04-02T08:17:18.308Z,16.38
2017-04-02T08:18:27.269Z,16.41
2017-04-02T08:19:36.305Z,16.45
2017-04-02T08:20:45.258Z,16.53
2017-04-02T08:21:54.525Z,16.52
2017-04-02T08:23:03.596Z,16.56
2017-04-02T08:24:12.637Z,16.57
2017-04-02T08:25:21.593Z,16.6
2017-04-02T08:26:30.550Z,16.68
2017-04-02T08:27:39.844Z,16.67
2017-04-02T08:28:48.800Z,16.75
2017-04-02T08:29:57.912Z,16.78
2017-04-02T08:31:07.506Z,16.78
2017-04-02T08:32:17.466Z,16.85
2017-04-02T08:33:26.727Z,16.85
2017-04-02T08:34:35.683Z,16.88
2017-04-02T08:35:44.850Z,16.89
2017-04-02T08:36:53.847Z,16.91
2017-04-02T08:38:02.871Z,17.01
2017-04-02T08:39:12.082Z,17.01
2017-04-02T08:40:21.386Z,17.01
2017-04-02T08:41:30.683Z,16.94
2017-04-02T08:42:39.846Z,16.93
2017-04-02T08:43:48.802Z,16.93
2017-04-02T08:44:58.067Z,16.96
2017-04-02T08:46:07.278Z,16.93
2017-04-02T08:47:16.239Z,16.96
2017-04-02T08:48:25.195Z,16.91
2017-04-02T08:49:34.155Z,17.01
2017-04-02T08:50:43.641Z,16.91
2017-04-02T08:51:52.828Z,16.91
2017-04-02T08:53:01.846Z,17.04
2017-04-02T08:54:10.895Z,17.14
2017-04-02T08:55:20.132Z,17.16
2017-04-02T08:56:29.520Z,17.22
2017-04-02T08:57:38.581Z,17.25
2017-04-02T08:58:47.538Z,17.41
2017-04-02T08:59:56.736Z,17.43
2017-04-02T09:01:05.823Z,17.55
2017-04-02T09:02:15.146Z,17.63
2017-04-02T09:03:24.141Z,17.58
2017-04-02T09:04:33.097Z,17.7
2017-04-02T09:05:42.081Z,17.68
2017-04-02T09:06:51.145Z,17.7
2017-04-02T09:08:00.480Z,17.64
2017-04-02T09:09:09.701Z,17.74
2017-04-02T09:10:25.512Z,17.74
2017-04-02T09:11:44.403Z,17.84
2017-04-02T09:13:00.812Z,17.96
2017-04-02T09:14:16.887Z,18
2017-04-02T09:15:31.364Z,17.93
2017-04-02T09:16:40.373Z,17.96
2017-04-02T09:17:49.604Z,18.05
2017-04-02T09:18:58.948Z,18
2017-04-02T09:20:07.908Z,18
2017-04-02T09:21:17.031Z,18.03
2017-04-02T09:22:26.642Z,18.2
2017-04-02T09:23:35.603Z,18.1
2017-04-02T09:24:44.857Z,18.05
2017-04-02T09:25:53.827Z,18.07
2017-04-02T09:27:02.786Z,18.12
2017-04-02T09:28:11.754Z,18.1
2017-04-02T09:29:20.714Z,18.32
2017-04-02T09:30:29.973Z,18.17
2017-04-02T09:31:38.932Z,18.11
2017-04-02T09:32:47.892Z,18.1
2017-04-02T09:33:56.850Z,18.14
2017-04-02T09:35:06.138Z,18.18
2017-04-02T09:36:15.399Z,18.27
2017-04-02T09:37:24.365Z,18.35
2017-04-02T09:38:33.324Z,18.37
2017-04-02T09:39:42.282Z,18.42
2017-04-02T09:40:51.245Z,18.44
2017-04-02T09:42:00.515Z,18.47
2017-04-02T09:43:09.587Z,18.36
2017-04-02T09:44:18.568Z,18.41
2017-04-02T09:45:27.551Z,18.27
2017-04-02T09:46:36.535Z,18.15
2017-04-02T09:47:45.825Z,18.18
2017-04-02T09:48:54.807Z,18.2
2017-04-02T09:50:03.788Z,18.26
2017-04-02T09:51:12.771Z,18.14
2017-04-02T09:52:21.758Z,18.27
2017-04-02T09:53:31.042Z,18.14
2017-04-02T09:54:40.069Z,18.14
2017-04-02T09:55:49.050Z,18.17
2017-04-02T09:56:58.038Z,18.27
2017-04-02T09:58:07.033Z,18.23
2017-04-02T09:59:16.317Z,18.35
2017-04-02T10:00:25.300Z,18.26
2017-04-02T10:01:34.283Z,18.25
2017-04-02T10:02:43.266Z,18.23
2017-04-02T10:03:52.247Z,18.1
2017-04-02T10:05:01.484Z,18.1
2017-04-02T10:06:10.799Z,18
2017-04-02T10:07:19.798Z,18.05
2017-04-02T10:08:28.784Z,18.07
2017-04-02T10:09:37.760Z,18.1
2017-04-02T10:10:47.048Z,18.08
2017-04-02T10:11:56.029Z,18.1
2017-04-02T10:13:05.020Z,18.23
2017-04-02T10:14:13.999Z,18.25
2017-04-02T10:15:22.982Z,18.21
2017-04-02T10:16:32.268Z,18.26
2017-04-02T10:17:41.251Z,18.27
2017-04-02T10:18:50.560Z,18.14
2017-04-02T10:19:59.543Z,18.12
2017-04-02T10:21:08.526Z,18.14
2017-04-02T10:22:17.814Z,18.29
2017-04-02T10:23:26.808Z,18.27
2017-04-02T10:24:35.789Z,18.23
2017-04-02T10:25:44.773Z,18.14
2017-04-02T10:26:53.760Z,18.14
2017-04-02T10:28:03.043Z,18.12
2017-04-02T10:29:12.026Z,18.11
2017-04-02T10:30:21.005Z,18.14
2017-04-02T10:31:29.989Z,18.05
2017-04-02T10:32:38.972Z,18.12
2017-04-02T10:33:48.256Z,18.27
2017-04-02T10:34:57.238Z,18.35
2017-04-02T10:36:06.254Z,18.39
2017-04-02T10:37:15.246Z,18.45
2017-04-02T10:38:24.229Z,18.42
2017-04-02T10:39:33.508Z,18.58
2017-04-02T10:40:42.494Z,18.55
2017-04-02T10:41:51.575Z,18.69
2017-04-02T10:43:00.558Z,18.66
2017-04-02T10:44:09.676Z,18.6
2017-04-02T10:45:19.112Z,18.54
2017-04-02T10:46:28.110Z,18.44
2017-04-02T10:47:37.183Z,18.45
2017-04-02T10:48:46.167Z,18.33
2017-04-02T10:49:55.177Z,18.33
2017-04-02T10:51:04.414Z,18.35
2017-04-02T10:52:13.404Z,18.26
2017-04-02T10:53:22.393Z,18.35
2017-04-02T10:54:31.375Z,18.25
2017-04-02T10:55:40.363Z,18.27
2017-04-02T10:56:49.642Z,18.26
2017-04-02T10:57:58.686Z,18.29
2017-04-02T10:59:07.668Z,18.21
2017-04-02T11:00:16.710Z,18.25
2017-04-02T11:01:25.686Z,18.25
2017-04-02T11:02:34.976Z,18.35
2017-04-02T11:03:44.059Z,18.41
2017-04-02T11:04:53.042Z,18.39
2017-04-02T11:06:02.115Z,18.5
2017-04-02T11:07:11.099Z,18.55
2017-04-02T11:08:20.382Z,18.65
2017-04-02T11:09:29.361Z,18.76
2017-04-02T11:10:38.345Z,18.78
2017-04-02T11:11:47.329Z,18.84
2017-04-02T11:12:56.317Z,18.82
2017-04-02T11:14:05.685Z,18.84
2017-04-02T11:15:14.668Z,18.88
2017-04-02T11:16:23.649Z,18.95
2017-04-02T11:17:32.627Z,19.02
2017-04-02T11:18:41.617Z,19.25
2017-04-02T11:19:50.941Z,19.18
2017-04-02T11:21:00.257Z,19.39
2017-04-02T11:22:09.223Z,19.5
2017-04-02T11:23:18.558Z,19.61
2017-04-02T11:24:27.550Z,19.59
2017-04-02T11:25:37.747Z,19.68
2017-04-02T11:26:46.728Z,19.62
2017-04-02T11:27:56.292Z,19.61
2017-04-02T11:29:06.120Z,19.51
2017-04-02T11:30:15.178Z,19.43
2017-04-02T11:31:24.441Z,19.29
2017-04-02T11:32:33.403Z,19.29
2017-04-02T11:33:42.361Z,19.25
2017-04-02T11:34:51.324Z,19.19
2017-04-02T11:36:00.285Z,19.21
2017-04-02T11:37:09.546Z,19.21
2017-04-02T11:38:18.504Z,19.25
2017-04-02T11:39:27.459Z,19.16
2017-04-02T11:40:36.431Z,19.25
2017-04-02T11:41:45.393Z,19.26
2017-04-02T11:42:54.661Z,19.29
2017-04-02T11:44:03.624Z,19.25
2017-04-02T11:45:12.629Z,19.26
2017-04-02T11:46:21.589Z,19.33
2017-04-02T11:47:30.554Z,19.36
2017-04-02T11:48:39.902Z,19.43
2017-04-02T11:49:48.861Z,19.51
2017-04-02T11:50:57.820Z,19.66
2017-04-02T11:52:06.780Z,19.63
2017-04-02T11:53:15.779Z,19.77
2017-04-02T11:54:24.990Z,19.8
2017-04-02T11:55:33.949Z,19.92
2017-04-02T11:56:42.910Z,19.86
2017-04-02T11:57:51.868Z,19.88
2017-04-02T11:59:00.834Z,19.83
2017-04-02T12:00:10.099Z,19.8
2017-04-02T12:01:19.068Z,19.76
2017-04-02T12:02:28.027Z,19.65
2017-04-02T12:03:37.036Z,19.71
2017-04-02T12:04:46.000Z,19.62
2017-04-02T12:05:55.213Z,19.66
2017-04-02T12:07:04.180Z,19.65
2017-04-02T12:08:13.135Z,19.65
2017-04-02T12:09:22.095Z,19.65
2017-04-02T12:10:31.055Z,19.76
2017-04-02T12:11:40.320Z,19.77
2017-04-02T12:12:49.287Z,19.88
2017-04-02T12:13:58.264Z,19.88
2017-04-02T12:15:07.228Z,20.02
2017-04-02T12:16:16.188Z,20.02
2017-04-02T12:17:25.455Z,19.98
2017-04-02T12:18:34.420Z,19.95
2017-04-02T12:19:43.465Z,20.05
2017-04-02T12:20:52.436Z,20.1
2017-04-02T12:22:01.398Z,20.18
2017-04-02T12:23:10.667Z,20.14
2017-04-02T12:24:19.622Z,20.24
2017-04-02T12:25:28.580Z,20.33
2017-04-02T12:26:37.544Z,20.32
2017-04-02T12:27:46.503Z,20.29
2017-04-02T12:28:55.769Z,20.31
2017-04-02T12:30:04.731Z,20.29
2017-04-02T12:31:13.688Z,20.21
2017-04-02T12:32:22.658Z,20.24
2017-04-02T12:33:31.614Z,20.17
2017-04-02T12:34:40.881Z,20.16
2017-04-02T12:35:49.852Z,20.17
2017-04-02T12:36:58.983Z,20.18
2017-04-02T12:38:07.942Z,20.18
2017-04-02T12:39:16.904Z,20.24
2017-04-02T12:40:26.118Z,20.36
2017-04-02T12:41:35.171Z,20.41
2017-04-02T12:42:44.129Z,20.5
2017-04-02T12:43:53.089Z,20.41
2017-04-02T12:45:02.056Z,20.5
2017-04-02T12:46:11.319Z,20.55
2017-04-02T12:47:20.379Z,20.57
2017-04-02T12:48:29.341Z,20.61
2017-04-02T12:49:38.301Z,20.5
2017-04-02T12:50:47.261Z,20.38
2017-04-02T12:51:56.614Z,20.39
2017-04-02T12:53:05.582Z,20.31
2017-04-02T12:54:14.542Z,20.42
2017-04-02T12:55:23.507Z,20.5
2017-04-02T12:56:32.468Z,20.5
2017-04-02T12:57:41.731Z,20.5
2017-04-02T12:58:50.694Z,20.51
2017-04-02T12:59:59.652Z,20.47
2017-04-02T13:01:08.654Z,20.5
2017-04-02T13:02:17.615Z,20.42
2017-04-02T13:03:26.883Z,20.28
2017-04-02T13:04:35.840Z,20.29
2017-04-02T13:05:44.801Z,20.16
2017-04-02T13:06:53.755Z,20.05
2017-04-02T13:08:02.715Z,19.98
2017-04-02T13:09:11.927Z,20.05
2017-04-02T13:10:21.212Z,20.02
2017-04-02T13:11:30.178Z,20.01
2017-04-02T13:12:39.189Z,19.95
2017-04-02T13:13:48.153Z,19.96
2017-04-02T13:14:57.417Z,19.87
2017-04-02T13:16:06.383Z,19.88
2017-04-02T13:17:15.343Z,19.87
2017-04-02T13:18:24.306Z,19.74
2017-04-02T13:19:33.310Z,19.76
2017-04-02T13:20:42.573Z,19.77
2017-04-02T13:21:51.535Z,19.71
2017-04-02T13:23:00.497Z,19.76
2017-04-02T13:24:09.457Z,19.8
2017-04-02T13:25:18.417Z,19.91
2017-04-02T13:26:27.680Z,19.83
2017-04-02T13:27:36.635Z,19.88
2017-04-02T13:28:45.597Z,19.88
2017-04-02T13:29:54.560Z,19.84
2017-04-02T13:31:03.523Z,19.95
2017-04-02T13:32:12.788Z,19.87
2017-04-02T13:33:21.750Z,19.74
2017-04-02T13:34:30.709Z,19.78
2017-04-02T13:35:39.671Z,19.77
2017-04-02T13:36:48.674Z,19.65
2017-04-02T13:37:57.937Z,19.56
2017-04-02T13:39:06.901Z,19.62
2017-04-02T13:40:15.862Z,19.63
2017-04-02T13:41:24.830Z,19.62
2017-04-02T13:42:33.792Z,19.68
2017-04-02T13:43:43.001Z,19.62
2017-04-02T13:44:51.958Z,19.58
2017-04-02T13:46:01.240Z,19.48
2017-04-02T13:47:10.525Z,19.55
2017-04-02T13:48:19.518Z,19.36
2017-04-02T13:49:28.776Z,19.4
2017-04-02T13:50:37.735Z,19.28
2017-04-02T13:51:46.742Z,19.29
2017-04-02T13:52:55.708Z,19.22
2017-04-02T13:54:04.676Z,19.31
2017-04-02T13:55:13.979Z,19.37
2017-04-02T13:56:22.942Z,19.44
2017-04-02T13:57:31.907Z,19.43
2017-04-02T13:58:40.866Z,19.43
2017-04-02T13:59:49.834Z,19.54
2017-04-02T14:00:59.365Z,19.46
2017-04-02T14:02:08.326Z,19.54
2017-04-02T14:03:17.381Z,19.51
2017-04-02T14:04:26.763Z,19.59
2017-04-02T14:05:35.723Z,19.59
2017-04-02T14:06:44.938Z,19.62
2017-04-02T14:07:53.894Z,19.61
2017-04-02T14:09:02.857Z,19.71
2017-04-02T14:10:11.819Z,19.65
2017-04-02T14:11:20.777Z,19.78
2017-04-02T14:12:30.036Z,19.65
2017-04-02T14:13:38.995Z,19.69
2017-04-02T14:14:48.043Z,19.65
2017-04-02T14:15:57.003Z,19.68
2017-04-02T14:17:05.968Z,19.65
2017-04-02T14:18:15.285Z,19.78
2017-04-02T14:19:24.249Z,19.66
2017-04-02T14:20:33.212Z,19.76
2017-04-02T14:21:42.182Z,19.77
2017-04-02T14:22:51.140Z,19.63
2017-04-02T14:24:00.406Z,19.66
2017-04-02T14:25:09.371Z,19.74
2017-04-02T14:26:18.334Z,19.66
2017-04-02T14:27:27.301Z,19.68
2017-04-02T14:28:36.279Z,19.66
2017-04-02T14:29:45.539Z,19.62
2017-04-02T14:30:54.500Z,19.65
2017-04-02T14:32:03.462Z,19.65
2017-04-02T14:33:12.436Z,19.63
2017-04-02T14:34:21.400Z,19.62
2017-04-02T14:35:30.660Z,19.65
2017-04-02T14:36:39.619Z,19.66
2017-04-02T14:37:48.586Z,19.65
2017-04-02T14:38:57.635Z,19.66
2017-04-02T14:40:06.607Z,19.71
2017-04-02T14:41:15.868Z,19.62
2017-04-02T14:42:24.830Z,19.54
2017-04-02T14:43:33.795Z,19.51
2017-04-02T14:44:43.096Z,19.46
2017-04-02T14:45:52.394Z,19.44
2017-04-02T14:47:01.700Z,19.47
2017-04-02T14:48:10.658Z,19.59
2017-04-02T14:49:19.620Z,19.47
2017-04-02T14:50:28.580Z,19.48
2017-04-02T14:51:37.546Z,19.59
2017-04-02T14:52:46.808Z,19.62
2017-04-02T14:53:55.856Z,19.61